sensor_id;sensor_type;location;lat;lon;timestamp;temperature;humidity
12746;DHT22;6437;53.686;10.030;2022-10-23T00:00:02;13.60;99.90
12746;DHT22;6437;53.686;10.030;2022-10-23T00:03:05;13.60;99.90
12746;DHT22;6437;53.686;10.030;2022-10-23T00:06:07;13.50;99.90
12746;DHT22;6437;53.686;10.030;2022-10-23T00:09:10;13.50;99.90
12746;DHT22;6437;53.686;10.030;2022-10-23T00:12:14;13.50;99.90
12746;DHT22;6437;53.686;10.030;2022-10-23T00:15:17;13.50;99.90
12746;DHT22;6437;53.686;10.030;2022-10-23T00:18:19;13.50;99.90
12746;DHT22;6437;53.686;10.030;2022-10-23T00:21:21;13.50;99.90
12746;DHT22;6437;53.686;10.030;2022-10-23T00:24:23;13.40;99.90
12746;DHT22;6437;53.686;10.030;2022-10-23T00:27:26;13.50;99.90
12746;DHT22;6437;53.686;10.030;2022-10-23T00:30:28;13.50;99.90
12746;DHT22;6437;53.686;10.030;2022-10-23T00:33:30;13.40;99.90
12746;DHT22;6437;53.686;10.030;2022-10-23T00:36:32;13.40;99.90
12746;DHT22;6437;53.686;10.030;2022-10-23T00:39:34;13.40;99.90
12746;DHT22;6437;53.686;10.030;2022-10-23T00:42:37;13.40;99.90
12746;DHT22;6437;53.686;10.030;2022-10-23T00:45:38;13.40;99.90
12746;DHT22;6437;53.686;10.030;2022-10-23T00:48:40;13.40;99.90
12746;DHT22;6437;53.686;10.030;2022-10-23T00:51:44;13.30;99.90
12746;DHT22;6437;53.686;10.030;2022-10-23T00:54:46;13.70;99.90
12746;DHT22;6437;53.686;10.030;2022-10-23T00:57:51;13.30;99.90
12746;DHT22;6437;53.686;10.030;2022-10-23T01:00:54;13.30;99.90
12746;DHT22;6437;53.686;10.030;2022-10-23T01:03:57;13.30;99.90
12746;DHT22;6437;53.686;10.030;2022-10-23T01:07:03;13.30;99.90
12746;DHT22;6437;53.686;10.030;2022-10-23T01:10:10;13.30;99.90
12746;DHT22;6437;53.686;10.030;2022-10-23T01:13:22;13.50;99.90
12746;DHT22;6437;53.686;10.030;2022-10-23T01:16:33;13.30;99.90
12746;DHT22;6437;53.686;10.030;2022-10-23T01:19:46;13.30;99.90
12746;DHT22;6437;53.686;10.030;2022-10-23T01:23:12;13.20;99.90
12746;DHT22;6437;53.686;10.030;2022-10-23T01:26:28;13.20;99.90
12746;DHT22;6437;53.686;10.030;2022-10-23T01:29:37;13.20;99.90
12746;DHT22;6437;53.686;10.030;2022-10-23T01:32:43;13.20;99.90
12746;DHT22;6437;53.686;10.030;2022-10-23T01:35:49;13.20;99.90
12746;DHT22;6437;53.686;10.030;2022-10-23T01:38:56;13.20;99.90
12746;DHT22;6437;53.686;10.030;2022-10-23T01:42:03;13.20;99.90
12746;DHT22;6437;53.686;10.030;2022-10-23T01:45:12;13.20;99.90
12746;DHT22;6437;53.686;10.030;2022-10-23T01:48:20;13.20;99.90
12746;DHT22;6437;53.686;10.030;2022-10-23T01:51:25;13.20;99.90
12746;DHT22;6437;53.686;10.030;2022-10-23T01:54:29;13.20;99.90
12746;DHT22;6437;53.686;10.030;2022-10-23T01:57:36;13.10;99.90
12746;DHT22;6437;53.686;10.030;2022-10-23T02:00:43;13.10;99.90
12746;DHT22;6437;53.686;10.030;2022-10-23T02:03:47;13.10;99.90
12746;DHT22;6437;53.686;10.030;2022-10-23T02:06:49;13.10;99.90
12746;DHT22;6437;53.686;10.030;2022-10-23T02:09:51;13.10;99.90
12746;DHT22;6437;53.686;10.030;2022-10-23T02:12:57;13.10;99.90
12746;DHT22;6437;53.686;10.030;2022-10-23T02:16:05;13.10;99.90
12746;DHT22;6437;53.686;10.030;2022-10-23T02:19:16;13.10;99.90
12746;DHT22;6437;53.686;10.030;2022-10-23T02:22:23;13.10;99.90
12746;DHT22;6437;53.686;10.030;2022-10-23T02:25:31;13.10;99.90
12746;DHT22;6437;53.686;10.030;2022-10-23T02:28:38;13.10;99.90
12746;DHT22;6437;53.686;10.030;2022-10-23T02:31:42;13.10;99.90
12746;DHT22;6437;53.686;10.030;2022-10-23T02:34:43;13.00;99.90
12746;DHT22;6437;53.686;10.030;2022-10-23T02:37:51;13.00;99.90
12746;DHT22;6437;53.686;10.030;2022-10-23T02:40:57;13.00;99.90
12746;DHT22;6437;53.686;10.030;2022-10-23T02:44:17;12.90;99.90
12746;DHT22;6437;53.686;10.030;2022-10-23T02:47:37;12.90;99.90
12746;DHT22;6437;53.686;10.030;2022-10-23T02:50:52;12.90;99.90
12746;DHT22;6437;53.686;10.030;2022-10-23T02:54:03;12.80;99.90
12746;DHT22;6437;53.686;10.030;2022-10-23T02:57:14;12.80;99.90
12746;DHT22;6437;53.686;10.030;2022-10-23T03:00:20;12.80;99.90
12746;DHT22;6437;53.686;10.030;2022-10-23T03:03:26;12.80;99.90
12746;DHT22;6437;53.686;10.030;2022-10-23T03:06:28;12.80;99.90
12746;DHT22;6437;53.686;10.030;2022-10-23T03:09:30;12.80;99.90
12746;DHT22;6437;53.686;10.030;2022-10-23T03:12:32;12.70;99.90
12746;DHT22;6437;53.686;10.030;2022-10-23T03:15:33;12.70;99.90
12746;DHT22;6437;53.686;10.030;2022-10-23T03:18:36;12.70;99.90
12746;DHT22;6437;53.686;10.030;2022-10-23T03:21:38;12.70;99.90
12746;DHT22;6437;53.686;10.030;2022-10-23T03:24:40;12.70;99.90
12746;DHT22;6437;53.686;10.030;2022-10-23T03:27:42;12.30;99.90
12746;DHT22;6437;53.686;10.030;2022-10-23T03:30:44;12.70;99.90
12746;DHT22;6437;53.686;10.030;2022-10-23T03:33:47;12.70;99.90
12746;DHT22;6437;53.686;10.030;2022-10-23T03:36:48;12.70;99.90
12746;DHT22;6437;53.686;10.030;2022-10-23T03:39:51;12.70;99.90
12746;DHT22;6437;53.686;10.030;2022-10-23T03:42:52;12.70;99.90
12746;DHT22;6437;53.686;10.030;2022-10-23T03:45:55;12.70;99.90
12746;DHT22;6437;53.686;10.030;2022-10-23T03:48:58;12.60;99.90
12746;DHT22;6437;53.686;10.030;2022-10-23T03:52:00;12.50;99.90
12746;DHT22;6437;53.686;10.030;2022-10-23T03:55:02;12.50;99.90
12746;DHT22;6437;53.686;10.030;2022-10-23T03:58:04;12.50;99.90
12746;DHT22;6437;53.686;10.030;2022-10-23T04:01:06;12.50;99.90
12746;DHT22;6437;53.686;10.030;2022-10-23T04:04:09;12.50;99.90
12746;DHT22;6437;53.686;10.030;2022-10-23T04:07:11;12.20;99.90
12746;DHT22;6437;53.686;10.030;2022-10-23T04:10:13;12.40;99.90
12746;DHT22;6437;53.686;10.030;2022-10-23T04:13:15;12.40;99.90
12746;DHT22;6437;53.686;10.030;2022-10-23T04:16:16;12.40;99.90
12746;DHT22;6437;53.686;10.030;2022-10-23T04:19:19;12.40;99.90
12746;DHT22;6437;53.686;10.030;2022-10-23T04:22:21;12.40;99.90
12746;DHT22;6437;53.686;10.030;2022-10-23T04:25:23;12.40;99.90
12746;DHT22;6437;53.686;10.030;2022-10-23T04:28:25;12.30;99.90
12746;DHT22;6437;53.686;10.030;2022-10-23T04:31:27;12.30;99.90
12746;DHT22;6437;53.686;10.030;2022-10-23T04:34:30;12.30;99.90
12746;DHT22;6437;53.686;10.030;2022-10-23T04:37:32;12.30;99.90
12746;DHT22;6437;53.686;10.030;2022-10-23T04:40:34;12.30;99.90
12746;DHT22;6437;53.686;10.030;2022-10-23T04:43:36;12.20;99.90
12746;DHT22;6437;53.686;10.030;2022-10-23T04:46:38;12.20;99.90
12746;DHT22;6437;53.686;10.030;2022-10-23T04:49:41;12.20;99.90
12746;DHT22;6437;53.686;10.030;2022-10-23T04:52:43;12.20;99.90
12746;DHT22;6437;53.686;10.030;2022-10-23T04:55:48;12.20;99.90
12746;DHT22;6437;53.686;10.030;2022-10-23T04:58:50;11.90;99.90
12746;DHT22;6437;53.686;10.030;2022-10-23T05:01:51;12.20;99.90
12746;DHT22;6437;53.686;10.030;2022-10-23T05:04:54;12.30;99.90
12746;DHT22;6437;53.686;10.030;2022-10-23T05:07:57;12.10;99.90
12746;DHT22;6437;53.686;10.030;2022-10-23T05:10:58;12.10;99.90
12746;DHT22;6437;53.686;10.030;2022-10-23T05:14:00;12.10;99.90
12746;DHT22;6437;53.686;10.030;2022-10-23T05:17:05;12.10;99.90
12746;DHT22;6437;53.686;10.030;2022-10-23T05:20:13;12.10;99.90
12746;DHT22;6437;53.686;10.030;2022-10-23T05:23:19;12.10;99.90
12746;DHT22;6437;53.686;10.030;2022-10-23T05:26:22;12.10;99.90
12746;DHT22;6437;53.686;10.030;2022-10-23T05:29:24;12.00;99.90
12746;DHT22;6437;53.686;10.030;2022-10-23T05:32:28;12.10;99.90
12746;DHT22;6437;53.686;10.030;2022-10-23T05:35:32;12.00;99.90
12746;DHT22;6437;53.686;10.030;2022-10-23T05:38:35;12.00;99.90
12746;DHT22;6437;53.686;10.030;2022-10-23T05:41:36;12.00;99.90
12746;DHT22;6437;53.686;10.030;2022-10-23T05:44:38;12.00;99.90
12746;DHT22;6437;53.686;10.030;2022-10-23T05:47:42;12.00;99.90
12746;DHT22;6437;53.686;10.030;2022-10-23T05:50:45;12.00;99.90
12746;DHT22;6437;53.686;10.030;2022-10-23T05:53:47;11.90;99.90
12746;DHT22;6437;53.686;10.030;2022-10-23T05:56:49;11.90;99.90
12746;DHT22;6437;53.686;10.030;2022-10-23T05:59:51;12.00;99.90
12746;DHT22;6437;53.686;10.030;2022-10-23T06:02:53;12.00;99.90
12746;DHT22;6437;53.686;10.030;2022-10-23T06:05:56;11.90;99.90
12746;DHT22;6437;53.686;10.030;2022-10-23T06:08:57;12.00;99.90
12746;DHT22;6437;53.686;10.030;2022-10-23T06:12:00;12.10;99.90
12746;DHT22;6437;53.686;10.030;2022-10-23T06:15:03;12.00;99.90
12746;DHT22;6437;53.686;10.030;2022-10-23T06:18:05;11.90;99.90
12746;DHT22;6437;53.686;10.030;2022-10-23T06:21:08;11.90;99.90
12746;DHT22;6437;53.686;10.030;2022-10-23T06:24:10;11.90;99.90
12746;DHT22;6437;53.686;10.030;2022-10-23T06:27:12;11.90;99.90
12746;DHT22;6437;53.686;10.030;2022-10-23T06:30:14;11.90;99.90
12746;DHT22;6437;53.686;10.030;2022-10-23T06:33:16;11.90;99.90
12746;DHT22;6437;53.686;10.030;2022-10-23T06:36:19;11.90;99.90
12746;DHT22;6437;53.686;10.030;2022-10-23T06:39:21;11.90;99.90
12746;DHT22;6437;53.686;10.030;2022-10-23T06:42:22;11.90;99.90
12746;DHT22;6437;53.686;10.030;2022-10-23T06:45:24;11.90;99.90
12746;DHT22;6437;53.686;10.030;2022-10-23T06:48:26;11.90;99.90
12746;DHT22;6437;53.686;10.030;2022-10-23T06:51:29;11.90;99.90
12746;DHT22;6437;53.686;10.030;2022-10-23T06:54:31;11.90;99.90
12746;DHT22;6437;53.686;10.030;2022-10-23T06:57:33;11.90;99.90
12746;DHT22;6437;53.686;10.030;2022-10-23T07:00:34;12.00;99.90
12746;DHT22;6437;53.686;10.030;2022-10-23T07:03:36;12.00;99.90
12746;DHT22;6437;53.686;10.030;2022-10-23T07:06:39;12.00;99.90
12746;DHT22;6437;53.686;10.030;2022-10-23T07:09:41;12.00;99.90
12746;DHT22;6437;53.686;10.030;2022-10-23T07:12:43;12.00;99.90
12746;DHT22;6437;53.686;10.030;2022-10-23T07:15:44;12.00;99.90
12746;DHT22;6437;53.686;10.030;2022-10-23T07:18:47;12.00;99.90
12746;DHT22;6437;53.686;10.030;2022-10-23T07:21:51;12.10;99.90
12746;DHT22;6437;53.686;10.030;2022-10-23T07:24:52;12.10;99.90
12746;DHT22;6437;53.686;10.030;2022-10-23T07:27:54;12.10;99.90
12746;DHT22;6437;53.686;10.030;2022-10-23T07:30:56;12.10;99.90
12746;DHT22;6437;53.686;10.030;2022-10-23T07:33:58;12.20;99.90
12746;DHT22;6437;53.686;10.030;2022-10-23T07:37:01;12.20;99.90
12746;DHT22;6437;53.686;10.030;2022-10-23T07:40:03;12.20;99.90
12746;DHT22;6437;53.686;10.030;2022-10-23T07:43:05;12.30;99.90
12746;DHT22;6437;53.686;10.030;2022-10-23T07:46:07;12.40;99.90
12746;DHT22;6437;53.686;10.030;2022-10-23T07:49:10;12.40;99.90
12746;DHT22;6437;53.686;10.030;2022-10-23T07:52:13;12.40;99.90
12746;DHT22;6437;53.686;10.030;2022-10-23T07:55:16;12.50;99.90
12746;DHT22;6437;53.686;10.030;2022-10-23T07:58:17;12.50;99.90
12746;DHT22;6437;53.686;10.030;2022-10-23T08:01:31;12.50;99.90
12746;DHT22;6437;53.686;10.030;2022-10-23T08:04:33;12.60;99.90
12746;DHT22;6437;53.686;10.030;2022-10-23T08:07:36;12.70;99.90
12746;DHT22;6437;53.686;10.030;2022-10-23T08:10:38;12.70;99.90
12746;DHT22;6437;53.686;10.030;2022-10-23T08:13:41;12.80;99.90
12746;DHT22;6437;53.686;10.030;2022-10-23T08:16:43;12.80;99.90
12746;DHT22;6437;53.686;10.030;2022-10-23T08:19:45;12.90;99.90
12746;DHT22;6437;53.686;10.030;2022-10-23T08:22:49;13.00;99.90
12746;DHT22;6437;53.686;10.030;2022-10-23T08:25:56;13.00;99.90
12746;DHT22;6437;53.686;10.030;2022-10-23T08:28:58;13.10;99.90
12746;DHT22;6437;53.686;10.030;2022-10-23T08:32:00;13.10;99.90
12746;DHT22;6437;53.686;10.030;2022-10-23T08:35:01;13.20;99.90
12746;DHT22;6437;53.686;10.030;2022-10-23T08:38:05;13.30;99.90
12746;DHT22;6437;53.686;10.030;2022-10-23T08:41:18;13.30;99.90
12746;DHT22;6437;53.686;10.030;2022-10-23T08:44:28;13.40;99.90
12746;DHT22;6437;53.686;10.030;2022-10-23T08:47:35;13.50;99.90
12746;DHT22;6437;53.686;10.030;2022-10-23T08:50:42;13.50;99.90
12746;DHT22;6437;53.686;10.030;2022-10-23T08:53:50;13.60;99.90
12746;DHT22;6437;53.686;10.030;2022-10-23T08:57:00;13.60;99.90
12746;DHT22;6437;53.686;10.030;2022-10-23T09:00:05;13.60;99.90
12746;DHT22;6437;53.686;10.030;2022-10-23T09:03:11;13.70;99.90
12746;DHT22;6437;53.686;10.030;2022-10-23T09:06:20;13.80;99.90
12746;DHT22;6437;53.686;10.030;2022-10-23T09:09:52;13.80;99.90
12746;DHT22;6437;53.686;10.030;2022-10-23T09:12:56;13.90;99.90
12746;DHT22;6437;53.686;10.030;2022-10-23T09:16:06;13.90;99.90
12746;DHT22;6437;53.686;10.030;2022-10-23T09:19:14;14.00;99.90
12746;DHT22;6437;53.686;10.030;2022-10-23T09:22:16;14.00;99.90
12746;DHT22;6437;53.686;10.030;2022-10-23T09:25:21;14.10;99.90
12746;DHT22;6437;53.686;10.030;2022-10-23T09:28:30;14.20;99.90
12746;DHT22;6437;53.686;10.030;2022-10-23T09:31:33;14.20;99.90
12746;DHT22;6437;53.686;10.030;2022-10-23T09:34:34;14.30;99.90
12746;DHT22;6437;53.686;10.030;2022-10-23T09:37:45;14.30;99.90
12746;DHT22;6437;53.686;10.030;2022-10-23T09:40:49;14.30;99.90
12746;DHT22;6437;53.686;10.030;2022-10-23T09:44:10;14.40;99.90
12746;DHT22;6437;53.686;10.030;2022-10-23T09:47:19;14.50;99.90
12746;DHT22;6437;53.686;10.030;2022-10-23T09:50:22;14.50;99.90
12746;DHT22;6437;53.686;10.030;2022-10-23T09:53:31;14.60;99.90
12746;DHT22;6437;53.686;10.030;2022-10-23T09:56:39;14.60;99.90
12746;DHT22;6437;53.686;10.030;2022-10-23T09:59:41;14.60;99.90
12746;DHT22;6437;53.686;10.030;2022-10-23T10:02:54;14.70;99.90
12746;DHT22;6437;53.686;10.030;2022-10-23T10:05:58;14.70;99.90
12746;DHT22;6437;53.686;10.030;2022-10-23T10:09:04;14.70;99.90
12746;DHT22;6437;53.686;10.030;2022-10-23T10:12:18;14.80;99.90
12746;DHT22;6437;53.686;10.030;2022-10-23T10:15:27;14.80;99.90
12746;DHT22;6437;53.686;10.030;2022-10-23T10:18:35;14.90;99.90
12746;DHT22;6437;53.686;10.030;2022-10-23T10:21:44;14.90;99.90
12746;DHT22;6437;53.686;10.030;2022-10-23T10:24:53;15.00;99.90
12746;DHT22;6437;53.686;10.030;2022-10-23T10:28:09;15.00;99.90
12746;DHT22;6437;53.686;10.030;2022-10-23T10:31:20;15.00;99.90
12746;DHT22;6437;53.686;10.030;2022-10-23T10:34:28;15.20;99.90
12746;DHT22;6437;53.686;10.030;2022-10-23T10:37:40;15.20;99.90
12746;DHT22;6437;53.686;10.030;2022-10-23T10:41:01;15.20;99.90
12746;DHT22;6437;53.686;10.030;2022-10-23T10:44:42;15.30;99.90
12746;DHT22;6437;53.686;10.030;2022-10-23T10:47:53;15.40;99.90
12746;DHT22;6437;53.686;10.030;2022-10-23T10:51:01;15.40;99.90
12746;DHT22;6437;53.686;10.030;2022-10-23T10:54:15;15.40;99.90
12746;DHT22;6437;53.686;10.030;2022-10-23T10:57:29;15.40;99.90
12746;DHT22;6437;53.686;10.030;2022-10-23T11:00:33;15.40;99.90
12746;DHT22;6437;53.686;10.030;2022-10-23T11:03:37;15.50;99.90
12746;DHT22;6437;53.686;10.030;2022-10-23T11:06:40;15.60;99.90
12746;DHT22;6437;53.686;10.030;2022-10-23T11:09:44;15.60;99.90
12746;DHT22;6437;53.686;10.030;2022-10-23T11:12:47;15.70;99.90
12746;DHT22;6437;53.686;10.030;2022-10-23T11:15:51;15.70;99.90
12746;DHT22;6437;53.686;10.030;2022-10-23T11:19:03;15.80;99.90
12746;DHT22;6437;53.686;10.030;2022-10-23T11:22:10;15.90;99.90
12746;DHT22;6437;53.686;10.030;2022-10-23T11:25:25;15.90;99.90
12746;DHT22;6437;53.686;10.030;2022-10-23T11:28:45;16.10;99.90
12746;DHT22;6437;53.686;10.030;2022-10-23T11:32:04;16.20;99.90
12746;DHT22;6437;53.686;10.030;2022-10-23T11:35:16;16.30;99.90
12746;DHT22;6437;53.686;10.030;2022-10-23T11:38:24;16.30;99.90
12746;DHT22;6437;53.686;10.030;2022-10-23T11:41:28;16.30;99.90
12746;DHT22;6437;53.686;10.030;2022-10-23T11:44:42;16.30;99.90
12746;DHT22;6437;53.686;10.030;2022-10-23T11:47:55;16.40;99.90
12746;DHT22;6437;53.686;10.030;2022-10-23T11:50:57;16.50;99.90
12746;DHT22;6437;53.686;10.030;2022-10-23T11:54:18;16.50;99.90
12746;DHT22;6437;53.686;10.030;2022-10-23T11:57:23;16.50;99.90
12746;DHT22;6437;53.686;10.030;2022-10-23T12:00:29;16.60;99.90
12746;DHT22;6437;53.686;10.030;2022-10-23T12:03:40;16.70;99.90
12746;DHT22;6437;53.686;10.030;2022-10-23T12:06:49;16.90;99.90
12746;DHT22;6437;53.686;10.030;2022-10-23T12:09:55;17.10;99.90
12746;DHT22;6437;53.686;10.030;2022-10-23T12:12:58;17.30;99.90
12746;DHT22;6437;53.686;10.030;2022-10-23T12:16:00;17.60;99.90
12746;DHT22;6437;53.686;10.030;2022-10-23T12:19:17;17.80;99.90
12746;DHT22;6437;53.686;10.030;2022-10-23T12:22:21;18.00;99.90
12746;DHT22;6437;53.686;10.030;2022-10-23T12:25:32;18.10;99.90
12746;DHT22;6437;53.686;10.030;2022-10-23T12:28:41;18.10;99.90
12746;DHT22;6437;53.686;10.030;2022-10-23T12:31:51;18.10;99.90
12746;DHT22;6437;53.686;10.030;2022-10-23T12:35:08;18.10;99.90
12746;DHT22;6437;53.686;10.030;2022-10-23T12:38:16;18.00;99.90
12746;DHT22;6437;53.686;10.030;2022-10-23T12:41:23;18.00;99.90
12746;DHT22;6437;53.686;10.030;2022-10-23T12:44:26;17.90;99.90
12746;DHT22;6437;53.686;10.030;2022-10-23T12:47:29;17.90;99.90
12746;DHT22;6437;53.686;10.030;2022-10-23T12:50:33;17.80;99.90
12746;DHT22;6437;53.686;10.030;2022-10-23T12:53:34;17.70;99.90
12746;DHT22;6437;53.686;10.030;2022-10-23T12:56:36;17.70;99.90
12746;DHT22;6437;53.686;10.030;2022-10-23T12:59:39;17.60;99.90
12746;DHT22;6437;53.686;10.030;2022-10-23T13:02:42;17.50;99.90
12746;DHT22;6437;53.686;10.030;2022-10-23T13:05:45;17.30;99.90
12746;DHT22;6437;53.686;10.030;2022-10-23T13:08:47;17.20;99.90
12746;DHT22;6437;53.686;10.030;2022-10-23T13:11:50;17.20;99.90
12746;DHT22;6437;53.686;10.030;2022-10-23T13:14:58;17.10;99.90
12746;DHT22;6437;53.686;10.030;2022-10-23T13:18:01;17.10;99.90
12746;DHT22;6437;53.686;10.030;2022-10-23T13:21:15;17.00;99.90
12746;DHT22;6437;53.686;10.030;2022-10-23T13:24:19;17.00;99.90
12746;DHT22;6437;53.686;10.030;2022-10-23T13:27:30;16.90;99.90
12746;DHT22;6437;53.686;10.030;2022-10-23T13:30:33;16.80;99.90
12746;DHT22;6437;53.686;10.030;2022-10-23T13:33:38;16.80;99.90
12746;DHT22;6437;53.686;10.030;2022-10-23T13:36:50;16.80;99.90
12746;DHT22;6437;53.686;10.030;2022-10-23T13:39:59;16.70;99.90
12746;DHT22;6437;53.686;10.030;2022-10-23T13:43:01;16.70;99.90
12746;DHT22;6437;53.686;10.030;2022-10-23T13:46:03;16.70;99.90
12746;DHT22;6437;53.686;10.030;2022-10-23T13:49:05;16.60;99.90
12746;DHT22;6437;53.686;10.030;2022-10-23T13:52:12;16.60;99.90
12746;DHT22;6437;53.686;10.030;2022-10-23T13:55:19;16.60;99.90
12746;DHT22;6437;53.686;10.030;2022-10-23T13:58:22;16.60;99.90
12746;DHT22;6437;53.686;10.030;2022-10-23T14:01:26;16.50;99.90
12746;DHT22;6437;53.686;10.030;2022-10-23T14:04:29;16.50;99.90
12746;DHT22;6437;53.686;10.030;2022-10-23T14:07:32;16.50;99.90
12746;DHT22;6437;53.686;10.030;2022-10-23T14:10:33;16.50;99.90
12746;DHT22;6437;53.686;10.030;2022-10-23T14:13:35;16.50;99.90
12746;DHT22;6437;53.686;10.030;2022-10-23T14:16:37;16.50;99.90
12746;DHT22;6437;53.686;10.030;2022-10-23T14:19:39;16.50;99.90
12746;DHT22;6437;53.686;10.030;2022-10-23T14:22:42;16.50;99.90
12746;DHT22;6437;53.686;10.030;2022-10-23T14:25:44;16.50;99.90
12746;DHT22;6437;53.686;10.030;2022-10-23T14:28:46;16.40;99.90
12746;DHT22;6437;53.686;10.030;2022-10-23T14:31:48;16.40;99.90
12746;DHT22;6437;53.686;10.030;2022-10-23T14:34:54;16.40;99.90
12746;DHT22;6437;53.686;10.030;2022-10-23T14:37:57;16.40;99.90
12746;DHT22;6437;53.686;10.030;2022-10-23T14:40:59;16.40;99.90
12746;DHT22;6437;53.686;10.030;2022-10-23T14:44:01;16.30;99.90
12746;DHT22;6437;53.686;10.030;2022-10-23T14:47:03;16.30;99.90
12746;DHT22;6437;53.686;10.030;2022-10-23T14:50:06;16.30;99.90
12746;DHT22;6437;53.686;10.030;2022-10-23T14:53:09;16.30;99.90
12746;DHT22;6437;53.686;10.030;2022-10-23T14:56:11;16.30;99.90
12746;DHT22;6437;53.686;10.030;2022-10-23T14:59:13;16.20;99.90
12746;DHT22;6437;53.686;10.030;2022-10-23T15:02:15;16.10;99.90
12746;DHT22;6437;53.686;10.030;2022-10-23T15:05:17;16.10;99.90
12746;DHT22;6437;53.686;10.030;2022-10-23T15:08:22;16.10;99.90
12746;DHT22;6437;53.686;10.030;2022-10-23T15:11:25;16.10;99.90
12746;DHT22;6437;53.686;10.030;2022-10-23T15:14:26;16.10;99.90
12746;DHT22;6437;53.686;10.030;2022-10-23T15:17:28;16.20;99.90
12746;DHT22;6437;53.686;10.030;2022-10-23T15:20:31;16.10;99.90
12746;DHT22;6437;53.686;10.030;2022-10-23T15:23:36;16.10;99.90
12746;DHT22;6437;53.686;10.030;2022-10-23T15:26:38;16.00;99.90
12746;DHT22;6437;53.686;10.030;2022-10-23T15:29:42;16.00;99.90
12746;DHT22;6437;53.686;10.030;2022-10-23T15:32:44;15.90;99.90
12746;DHT22;6437;53.686;10.030;2022-10-23T15:35:46;15.90;99.90
12746;DHT22;6437;53.686;10.030;2022-10-23T15:38:49;15.80;99.90
12746;DHT22;6437;53.686;10.030;2022-10-23T15:41:53;15.90;99.90
12746;DHT22;6437;53.686;10.030;2022-10-23T15:44:54;15.90;99.90
12746;DHT22;6437;53.686;10.030;2022-10-23T15:47:56;15.80;99.90
12746;DHT22;6437;53.686;10.030;2022-10-23T15:50:58;15.80;99.90
12746;DHT22;6437;53.686;10.030;2022-10-23T15:54:01;15.80;99.90
12746;DHT22;6437;53.686;10.030;2022-10-23T15:57:03;15.80;99.90
12746;DHT22;6437;53.686;10.030;2022-10-23T16:00:08;15.70;99.90
12746;DHT22;6437;53.686;10.030;2022-10-23T16:03:10;15.70;99.90
12746;DHT22;6437;53.686;10.030;2022-10-23T16:06:13;15.70;99.90
12746;DHT22;6437;53.686;10.030;2022-10-23T16:09:17;15.80;99.90
12746;DHT22;6437;53.686;10.030;2022-10-23T16:12:19;15.70;99.90
12746;DHT22;6437;53.686;10.030;2022-10-23T16:15:21;15.60;99.90
12746;DHT22;6437;53.686;10.030;2022-10-23T16:18:23;15.60;99.90
12746;DHT22;6437;53.686;10.030;2022-10-23T16:21:26;15.60;99.90
12746;DHT22;6437;53.686;10.030;2022-10-23T16:24:30;15.60;99.90
12746;DHT22;6437;53.686;10.030;2022-10-23T16:27:32;15.60;99.90
12746;DHT22;6437;53.686;10.030;2022-10-23T16:30:39;15.60;99.90
12746;DHT22;6437;53.686;10.030;2022-10-23T16:33:41;15.50;99.90
12746;DHT22;6437;53.686;10.030;2022-10-23T16:36:42;15.50;99.90
12746;DHT22;6437;53.686;10.030;2022-10-23T16:39:46;15.50;99.90
12746;DHT22;6437;53.686;10.030;2022-10-23T16:42:47;15.50;99.90
12746;DHT22;6437;53.686;10.030;2022-10-23T16:45:59;15.40;99.90
12746;DHT22;6437;53.686;10.030;2022-10-23T16:49:01;15.40;99.90
12746;DHT22;6437;53.686;10.030;2022-10-23T16:52:03;15.40;99.90
12746;DHT22;6437;53.686;10.030;2022-10-23T16:55:07;15.40;99.90
12746;DHT22;6437;53.686;10.030;2022-10-23T16:58:09;15.40;99.90
12746;DHT22;6437;53.686;10.030;2022-10-23T17:01:13;15.40;99.90
12746;DHT22;6437;53.686;10.030;2022-10-23T17:04:15;15.40;99.90
12746;DHT22;6437;53.686;10.030;2022-10-23T17:07:17;15.40;99.90
12746;DHT22;6437;53.686;10.030;2022-10-23T17:10:20;15.40;99.90
12746;DHT22;6437;53.686;10.030;2022-10-23T17:13:22;15.50;99.90
12746;DHT22;6437;53.686;10.030;2022-10-23T17:16:26;15.50;99.90
12746;DHT22;6437;53.686;10.030;2022-10-23T17:19:28;15.50;99.90
12746;DHT22;6437;53.686;10.030;2022-10-23T17:22:31;15.50;99.90
12746;DHT22;6437;53.686;10.030;2022-10-23T17:25:39;15.50;99.90
12746;DHT22;6437;53.686;10.030;2022-10-23T17:28:41;15.50;99.90
12746;DHT22;6437;53.686;10.030;2022-10-23T17:31:44;15.50;99.90
12746;DHT22;6437;53.686;10.030;2022-10-23T17:34:46;15.40;99.90
12746;DHT22;6437;53.686;10.030;2022-10-23T17:37:48;15.40;99.90
12746;DHT22;6437;53.686;10.030;2022-10-23T17:40:51;15.40;99.90
12746;DHT22;6437;53.686;10.030;2022-10-23T17:43:55;15.40;99.90
12746;DHT22;6437;53.686;10.030;2022-10-23T17:46:57;15.40;99.90
12746;DHT22;6437;53.686;10.030;2022-10-23T17:49:59;15.40;99.90
12746;DHT22;6437;53.686;10.030;2022-10-23T17:53:01;15.40;99.90
12746;DHT22;6437;53.686;10.030;2022-10-23T17:56:06;15.40;99.90
12746;DHT22;6437;53.686;10.030;2022-10-23T17:59:11;15.40;99.90
12746;DHT22;6437;53.686;10.030;2022-10-23T18:02:13;15.40;99.90
12746;DHT22;6437;53.686;10.030;2022-10-23T18:05:15;15.30;99.90
12746;DHT22;6437;53.686;10.030;2022-10-23T18:08:17;15.30;99.90
12746;DHT22;6437;53.686;10.030;2022-10-23T18:11:22;15.30;99.90
12746;DHT22;6437;53.686;10.030;2022-10-23T18:14:24;15.30;99.90
12746;DHT22;6437;53.686;10.030;2022-10-23T18:17:26;15.30;99.90
12746;DHT22;6437;53.686;10.030;2022-10-23T18:20:28;15.30;99.90
12746;DHT22;6437;53.686;10.030;2022-10-23T18:23:30;15.30;99.90
12746;DHT22;6437;53.686;10.030;2022-10-23T18:26:33;15.20;99.90
12746;DHT22;6437;53.686;10.030;2022-10-23T18:29:37;15.30;99.90
12746;DHT22;6437;53.686;10.030;2022-10-23T18:32:39;15.30;99.90
12746;DHT22;6437;53.686;10.030;2022-10-23T18:35:41;15.20;99.90
12746;DHT22;6437;53.686;10.030;2022-10-23T18:38:42;15.30;99.90
12746;DHT22;6437;53.686;10.030;2022-10-23T18:41:45;15.20;99.90
12746;DHT22;6437;53.686;10.030;2022-10-23T18:44:47;15.20;99.90
12746;DHT22;6437;53.686;10.030;2022-10-23T18:47:49;15.10;99.90
12746;DHT22;6437;53.686;10.030;2022-10-23T18:50:51;15.10;99.90
12746;DHT22;6437;53.686;10.030;2022-10-23T18:53:53;15.20;99.90
12746;DHT22;6437;53.686;10.030;2022-10-23T18:56:56;15.10;99.90
12746;DHT22;6437;53.686;10.030;2022-10-23T18:59:58;15.20;99.90
12746;DHT22;6437;53.686;10.030;2022-10-23T19:03:00;15.10;99.90
12746;DHT22;6437;53.686;10.030;2022-10-23T19:06:04;15.10;99.90
12746;DHT22;6437;53.686;10.030;2022-10-23T19:09:08;15.10;99.90
12746;DHT22;6437;53.686;10.030;2022-10-23T19:12:11;15.10;99.90
12746;DHT22;6437;53.686;10.030;2022-10-23T19:15:13;15.20;99.90
12746;DHT22;6437;53.686;10.030;2022-10-23T19:18:15;15.20;99.90
12746;DHT22;6437;53.686;10.030;2022-10-23T19:21:19;15.20;99.90
12746;DHT22;6437;53.686;10.030;2022-10-23T19:24:22;15.20;99.90